createdAt,value
2022-12-01T00:01:51.638Z,60.40
2022-12-01T00:04:38.881Z,63.73
2022-12-01T00:07:27.761Z,68.73
2022-12-01T00:10:28.735Z,61.93
2022-12-01T00:13:15.899Z,56.10
2022-12-01T00:16:11.683Z,57.03
2022-12-01T00:18:59.427Z,48.30
2022-12-01T00:21:47.430Z,56.00
2022-12-01T00:24:36.381Z,63.73
2022-12-01T00:27:23.469Z,62.87
2022-12-01T00:30:12.973Z,53.60
2022-12-01T00:33:00.173Z,51.67
2022-12-01T00:35:47.514Z,58.10
2022-12-01T00:38:35.722Z,49.17
2022-12-01T00:41:25.821Z,57.40
2022-12-01T00:44:13.313Z,52.30
2022-12-01T00:47:00.846Z,46.23
2022-12-01T00:49:48.930Z,54.57
2022-12-01T00:52:36.554Z,43.77
2022-12-01T00:55:23.991Z,50.90
2022-12-01T00:58:12.842Z,39.17
2022-12-01T01:01:01.316Z,46.77
2022-12-01T01:03:48.535Z,57.17
2022-12-01T01:06:35.952Z,55.23
2022-12-01T01:09:23.759Z,53.40
2022-12-01T01:12:11.014Z,48.60
2022-12-01T01:14:59.776Z,51.40
2022-12-01T01:17:46.875Z,48.57
2022-12-01T01:20:34.730Z,52.40
2022-12-01T01:23:21.852Z,45.07
2022-12-01T01:26:12.939Z,51.83
2022-12-01T01:29:02.098Z,57.27
2022-12-01T01:31:50.723Z,49.93
2022-12-01T01:34:37.972Z,50.40
2022-12-01T01:37:25.235Z,52.70
2022-12-01T01:40:13.332Z,48.67
2022-12-01T01:43:00.673Z,50.07
2022-12-01T01:45:48.117Z,53.70
2022-12-01T01:48:38.791Z,53.97
2022-12-01T01:51:29.350Z,50.37
2022-12-01T01:54:21.425Z,43.00
2022-12-01T01:57:11.276Z,54.87
2022-12-01T02:00:03.561Z,46.50
2022-12-01T02:03:00.876Z,54.90
2022-12-01T02:05:49.669Z,54.87
2022-12-01T02:08:38.429Z,52.17
2022-12-01T02:11:51.024Z,59.50
2022-12-01T02:14:58.221Z,57.80
2022-12-01T02:17:53.440Z,49.63
2022-12-01T02:21:20.563Z,58.93
2022-12-01T02:24:51.806Z,48.97
2022-12-01T02:28:00.858Z,56.97
2022-12-01T02:30:54.455Z,54.43
2022-12-01T02:33:44.746Z,58.50
2022-12-01T02:36:36.718Z,59.77
2022-12-01T02:39:30.418Z,51.53
2022-12-01T02:42:41.534Z,55.23
2022-12-01T02:45:35.984Z,58.13
2022-12-01T02:48:29.196Z,51.47
2022-12-01T02:51:20.556Z,59.83
2022-12-01T02:54:08.310Z,61.80
2022-12-01T02:56:56.376Z,53.87
2022-12-01T02:59:47.388Z,56.40
2022-12-01T03:02:43.029Z,54.73
2022-12-01T03:05:41.390Z,50.17
2022-12-01T03:08:33.839Z,49.10
2022-12-01T03:11:31.868Z,49.73
2022-12-01T03:14:33.874Z,35.83
2022-12-01T03:17:28.094Z,49.70
2022-12-01T03:20:20.746Z,45.80
2022-12-01T03:23:13.347Z,55.03
2022-12-01T03:26:03.013Z,47.03
2022-12-01T03:28:55.606Z,53.60
2022-12-01T03:31:49.166Z,46.77
2022-12-01T03:34:40.534Z,46.67
2022-12-01T03:37:31.778Z,65.20
2022-12-01T03:40:27.170Z,50.53
2022-12-01T03:43:20.373Z,58.20
2022-12-01T03:46:11.983Z,48.23
2022-12-01T03:48:59.271Z,48.93
2022-12-01T03:51:55.520Z,59.77
2022-12-01T03:54:50.242Z,53.37
2022-12-01T03:57:44.235Z,39.47
2022-12-01T04:00:32.398Z,53.30
2022-12-01T04:03:21.092Z,59.80
2022-12-01T04:06:08.988Z,54.97
2022-12-01T04:08:55.934Z,57.37
2022-12-01T04:12:00.562Z,63.97
2022-12-01T04:14:49.116Z,44.67
2022-12-01T04:17:36.730Z,69.93
2022-12-01T04:20:24.265Z,56.53
2022-12-01T04:23:31.407Z,56.00
2022-12-01T04:26:18.633Z,51.17
2022-12-01T04:29:08.096Z,54.60
2022-12-01T04:31:56.593Z,43.97
2022-12-01T04:34:43.865Z,49.10
2022-12-01T04:37:31.157Z,56.53
2022-12-01T04:40:19.229Z,35.70
2022-12-01T04:43:06.614Z,63.00
2022-12-01T04:45:54.031Z,62.77
2022-12-01T04:48:43.480Z,57.53
2022-12-01T04:51:30.736Z,58.97
2022-12-01T04:54:18.824Z,50.50
2022-12-01T04:57:06.097Z,64.87
2022-12-01T04:59:53.466Z,56.47
2022-12-01T05:02:43.218Z,53.80
2022-12-01T05:05:31.900Z,61.13
2022-12-01T05:08:19.303Z,52.37
2022-12-01T05:11:08.175Z,61.50
2022-12-01T05:13:55.697Z,55.27
2022-12-01T05:16:42.945Z,56.40
2022-12-01T05:19:48.000Z,59.97
2022-12-01T05:23:03.913Z,58.93
2022-12-01T05:25:43.866Z,62.80
2022-12-01T05:28:31.629Z,55.60
2022-12-01T05:31:18.908Z,53.97
2022-12-01T05:34:06.429Z,57.07
2022-12-01T05:36:53.713Z,49.33
2022-12-01T05:39:42.979Z,57.23
2022-12-01T05:42:30.224Z,58.80
2022-12-01T05:45:17.868Z,53.83
2022-12-01T05:48:05.408Z,50.90
2022-12-01T05:50:52.969Z,50.30
2022-12-01T05:53:40.073Z,58.10
2022-12-01T05:56:28.545Z,59.33
2022-12-01T05:59:15.738Z,57.40
2022-12-01T06:02:03.214Z,45.97
2022-12-01T06:04:50.517Z,64.73
2022-12-01T06:07:40.171Z,55.43
2022-12-01T06:10:27.513Z,57.97
2022-12-01T06:13:16.293Z,53.43
2022-12-01T06:16:05.760Z,51.30
2022-12-01T06:18:53.072Z,51.50
2022-12-01T06:21:40.365Z,48.67
2022-12-01T06:24:28.135Z,55.57
2022-12-01T06:27:15.277Z,57.73
2022-12-01T06:30:05.357Z,53.60
2022-12-01T06:32:52.858Z,56.30
2022-12-01T06:35:40.491Z,52.27
2022-12-01T06:38:30.724Z,58.03
2022-12-01T06:41:17.732Z,51.93
2022-12-01T06:44:05.740Z,48.13
2022-12-01T06:46:54.190Z,54.20
2022-12-01T06:49:41.328Z,62.60
2022-12-01T06:52:28.762Z,41.27
2022-12-01T06:55:16.505Z,52.40
2022-12-01T06:58:04.501Z,63.50
2022-12-01T07:00:52.436Z,55.90
2022-12-01T07:03:41.497Z,64.70
2022-12-01T07:06:31.233Z,60.73
2022-12-01T07:09:18.536Z,58.77
2022-12-01T07:12:06.625Z,63.97
2022-12-01T07:14:53.843Z,70.33
2022-12-01T07:17:41.184Z,59.80
2022-12-01T07:20:29.983Z,54.90
2022-12-01T07:23:17.563Z,60.97
2022-12-01T07:26:06.709Z,64.50
2022-12-01T07:28:54.348Z,58.43
2022-12-01T07:31:41.838Z,73.43
2022-12-01T07:34:29.226Z,84.37
2022-12-01T07:37:18.143Z,74.40
2022-12-01T07:40:06.220Z,64.83
2022-12-01T07:42:53.483Z,58.23
2022-12-01T07:45:41.054Z,70.10
2022-12-01T07:48:30.705Z,72.57
2022-12-01T07:51:18.024Z,70.33
2022-12-01T07:54:07.750Z,76.37
2022-12-01T07:56:55.381Z,87.00
2022-12-01T07:59:42.815Z,80.67
2022-12-01T08:02:30.348Z,68.93
2022-12-01T08:05:17.823Z,73.23
2022-12-01T08:08:05.188Z,81.50
2022-12-01T08:10:54.084Z,85.30
2022-12-01T08:13:41.714Z,84.47
2022-12-01T08:16:29.657Z,82.07
2022-12-01T08:19:17.125Z,77.57
2022-12-01T08:22:04.894Z,87.47
2022-12-01T08:24:52.241Z,94.53
2022-12-01T08:27:41.069Z,82.23
2022-12-01T08:30:29.211Z,82.67
2022-12-01T08:33:16.621Z,96.97
2022-12-01T08:36:04.456Z,86.47
2022-12-01T08:38:53.780Z,85.97
2022-12-01T08:41:41.075Z,88.27
2022-12-01T08:44:29.922Z,78.53
2022-12-01T08:47:18.932Z,90.93
2022-12-01T08:50:07.878Z,95.53
2022-12-01T08:52:55.501Z,87.70
2022-12-01T08:55:42.505Z,83.47
2022-12-01T08:58:30.555Z,96.67
2022-12-01T09:01:20.114Z,82.87
2022-12-01T09:04:08.612Z,84.27
2022-12-01T09:06:57.669Z,94.03
2022-12-01T09:09:45.514Z,50.40
2022-12-01T09:12:32.565Z,66.03
2022-12-01T09:15:20.166Z,89.93
2022-12-01T09:18:08.884Z,88.57
2022-12-01T09:20:57.280Z,95.30
2022-12-01T09:23:45.146Z,82.37
2022-12-01T09:26:32.795Z,76.03
2022-12-01T09:29:19.922Z,88.37
2022-12-01T09:32:07.357Z,86.30
2022-12-01T09:34:56.012Z,93.80
2022-12-01T09:37:43.131Z,87.87
2022-12-01T09:40:35.035Z,87.93
2022-12-01T09:43:25.240Z,87.53
2022-12-01T09:46:17.189Z,84.53
2022-12-01T09:49:05.443Z,84.30
2022-12-01T09:51:55.566Z,88.40
2022-12-01T09:54:43.100Z,97.47
2022-12-01T09:57:35.225Z,72.40
2022-12-01T10:00:24.673Z,98.53
2022-12-01T10:03:22.403Z,90.70
2022-12-01T10:06:27.477Z,85.10
2022-12-01T10:09:24.412Z,94.23
2022-12-01T10:12:18.545Z,85.80
2022-12-01T10:15:22.606Z,84.60
2022-12-01T10:18:24.493Z,95.57
2022-12-01T10:21:17.706Z,79.53
2022-12-01T10:24:20.479Z,78.00
2022-12-01T10:27:21.760Z,93.07
2022-12-01T10:30:13.743Z,73.03
2022-12-01T10:33:07.059Z,87.43
2022-12-01T10:35:54.946Z,88.77
2022-12-01T10:38:42.193Z,77.03
2022-12-01T10:41:33.809Z,86.23
2022-12-01T10:44:22.353Z,80.37
2022-12-01T10:47:19.426Z,65.73
2022-12-01T10:50:08.313Z,85.97
2022-12-01T10:52:55.724Z,81.73
2022-12-01T10:55:47.894Z,81.10
2022-12-01T10:58:44.197Z,83.83
2022-12-01T11:01:35.671Z,68.30
2022-12-01T11:04:32.763Z,64.00
2022-12-01T11:07:24.016Z,70.33
2022-12-01T11:10:20.349Z,79.40
2022-12-01T11:13:15.073Z,73.93
2022-12-01T11:16:04.673Z,66.23
2022-12-01T11:19:09.592Z,76.77
2022-12-01T11:21:58.917Z,70.87
2022-12-01T11:24:57.106Z,67.00
2022-12-01T11:27:51.002Z,61.90
2022-12-01T11:30:38.404Z,61.63
2022-12-01T11:33:26.126Z,59.33
2022-12-01T11:36:29.337Z,61.20
2022-12-01T11:39:24.542Z,69.93
2022-12-01T11:42:21.609Z,61.67
2022-12-01T11:45:25.461Z,57.77
2022-12-01T11:48:25.892Z,62.00
2022-12-01T11:51:31.755Z,55.07
2022-12-01T11:54:21.391Z,54.43
2022-12-01T11:57:33.215Z,56.77
2022-12-01T12:00:20.980Z,53.47
2022-12-01T12:03:20.818Z,50.30
2022-12-01T12:06:40.338Z,51.70
2022-12-01T12:09:47.926Z,48.67
2022-12-01T12:12:48.297Z,51.13
2022-12-01T12:15:45.125Z,51.27
2022-12-01T12:18:45.156Z,60.23
2022-12-01T12:21:35.246Z,47.57
2022-12-01T12:24:38.030Z,53.20
2022-12-01T12:27:35.572Z,50.10
2022-12-01T12:30:26.358Z,43.27
2022-12-01T12:33:39.693Z,50.30
2022-12-01T12:36:37.858Z,50.17
2022-12-01T12:39:56.066Z,29.63
2022-12-01T12:42:51.434Z,52.27
2022-12-01T12:45:52.402Z,44.90
2022-12-01T12:52:13.696Z,44.83
2022-12-01T12:55:11.966Z,42.37
2022-12-01T12:58:08.063Z,54.67
2022-12-01T13:01:03.448Z,50.13
2022-12-01T13:03:56.520Z,47.50
2022-12-01T13:06:49.890Z,48.50
2022-12-01T13:09:41.594Z,44.87
2022-12-01T13:12:33.651Z,45.80
2022-12-01T13:15:22.549Z,46.13
2022-12-01T13:18:17.935Z,46.37
2022-12-01T13:21:06.514Z,47.67
2022-12-01T13:23:54.414Z,48.97
2022-12-01T13:26:44.906Z,49.07
2022-12-01T13:29:43.729Z,48.60
2022-12-01T13:32:35.520Z,42.77
2022-12-01T13:35:26.423Z,45.50
2022-12-01T13:38:24.835Z,44.80
2022-12-01T13:41:21.022Z,44.50
2022-12-01T13:44:20.456Z,46.03
2022-12-01T13:47:38.757Z,41.30
2022-12-01T13:50:54.276Z,42.73
2022-12-01T13:53:58.336Z,42.47
2022-12-01T13:56:48.113Z,47.57
2022-12-01T14:00:17.697Z,46.13
2022-12-01T14:03:38.873Z,49.90
2022-12-01T14:06:29.093Z,40.83
2022-12-01T14:09:22.359Z,43.07
2022-12-01T14:12:17.987Z,47.93
2022-12-01T14:15:23.575Z,46.67
2022-12-01T14:18:32.986Z,39.50
2022-12-01T14:21:42.789Z,37.97
2022-12-01T14:24:35.261Z,41.60
2022-12-01T14:27:35.897Z,39.17
2022-12-01T14:30:59.763Z,42.40
2022-12-01T14:34:00.189Z,46.00
2022-12-01T14:36:52.717Z,42.80
2022-12-01T14:39:42.242Z,42.80
2022-12-01T14:42:52.334Z,38.57
2022-12-01T14:45:44.061Z,45.77
2022-12-01T14:48:38.900Z,47.47
2022-12-01T14:51:29.516Z,39.30
2022-12-01T14:54:25.158Z,38.97
2022-12-01T14:57:17.344Z,43.37
2022-12-01T15:00:08.102Z,44.60
2022-12-01T15:02:59.868Z,38.03
2022-12-01T15:05:47.006Z,43.50
2022-12-01T15:08:53.262Z,44.60
2022-12-01T15:11:53.941Z,38.77
2022-12-01T15:14:49.389Z,39.93
2022-12-01T15:17:37.642Z,40.47
2022-12-01T15:20:29.936Z,41.07
2022-12-01T15:23:18.096Z,40.40
2022-12-01T15:26:05.727Z,42.27
2022-12-01T15:29:16.455Z,39.13
2022-12-01T15:32:07.974Z,37.43
2022-12-01T15:34:56.830Z,44.70
2022-12-01T15:37:46.608Z,38.33
2022-12-01T15:43:41.866Z,36.80
2022-12-01T15:46:32.914Z,42.17
2022-12-01T15:49:27.356Z,44.23
2022-12-01T15:52:16.149Z,35.03
2022-12-01T15:55:05.982Z,40.20
2022-12-01T15:57:53.266Z,42.43
2022-12-01T16:00:40.601Z,40.43
2022-12-01T16:03:30.122Z,39.90
2022-12-01T16:06:18.438Z,46.33
2022-12-01T16:09:07.815Z,64.53
2022-12-01T16:12:06.714Z,46.53
2022-12-01T16:14:57.085Z,44.40
2022-12-01T16:17:46.467Z,43.37
2022-12-01T16:20:40.377Z,43.63
2022-12-01T16:23:27.938Z,45.23
2022-12-01T16:26:15.482Z,45.20
2022-12-01T16:29:03.030Z,45.27
2022-12-01T16:32:19.760Z,41.30
2022-12-01T16:34:58.282Z,42.50
2022-12-01T16:37:46.751Z,49.90
2022-12-01T16:40:35.316Z,42.10
2022-12-01T16:43:24.301Z,47.87
2022-12-01T16:46:13.798Z,39.57
2022-12-01T16:49:01.093Z,48.43
2022-12-01T16:51:57.149Z,46.07
2022-12-01T16:54:45.908Z,45.77
2022-12-01T16:57:32.965Z,45.90
2022-12-01T17:00:21.191Z,51.33
2022-12-01T17:03:09.403Z,44.53
2022-12-01T17:05:57.992Z,48.20
2022-12-01T17:08:46.729Z,47.83
2022-12-01T17:11:35.607Z,42.60
2022-12-01T17:14:23.150Z,55.63
2022-12-01T17:17:10.446Z,50.80
2022-12-01T17:19:58.040Z,45.70
2022-12-01T17:22:45.386Z,47.17
2022-12-01T17:25:33.143Z,43.00
2022-12-01T17:28:22.362Z,50.83
2022-12-01T17:31:10.046Z,45.17
2022-12-01T17:33:57.146Z,45.57
2022-12-01T17:36:44.313Z,52.70
2022-12-01T17:39:31.730Z,52.03
2022-12-01T17:42:19.208Z,49.50
2022-12-01T17:45:08.900Z,49.73
2022-12-01T17:47:56.364Z,46.43
2022-12-01T17:50:44.708Z,49.93
2022-12-01T17:53:32.159Z,48.17
2022-12-01T17:56:19.520Z,45.20
2022-12-01T17:59:06.997Z,44.90
2022-12-01T18:01:55.957Z,47.93
2022-12-01T18:04:43.199Z,44.70
2022-12-01T18:07:30.679Z,51.23
2022-12-01T18:10:18.544Z,42.00
2022-12-01T18:13:05.925Z,49.43
2022-12-01T18:15:54.024Z,54.87
2022-12-01T18:18:42.850Z,53.73
2022-12-01T18:21:30.159Z,51.03
2022-12-01T18:24:17.506Z,46.17
2022-12-01T18:27:04.831Z,45.47
2022-12-01T18:29:52.152Z,48.10
2022-12-01T18:32:39.730Z,46.63
2022-12-01T18:35:31.721Z,50.50
2022-12-01T18:38:19.374Z,49.43
2022-12-01T18:41:07.123Z,50.37
2022-12-01T18:43:54.750Z,50.30
2022-12-01T18:46:42.527Z,51.23
2022-12-01T18:49:29.894Z,49.97
2022-12-01T18:52:18.433Z,46.97
2022-12-01T18:55:05.978Z,47.30
2022-12-01T18:57:53.401Z,46.93
2022-12-01T19:00:40.904Z,49.20
2022-12-01T19:03:30.160Z,46.87
2022-12-01T19:06:17.937Z,53.40
2022-12-01T19:09:10.108Z,52.37
2022-12-01T19:11:59.871Z,41.13
2022-12-01T19:14:47.249Z,42.43
2022-12-01T19:17:35.009Z,41.90
2022-12-01T19:20:23.410Z,47.17
2022-12-01T19:23:10.834Z,43.67
2022-12-01T19:26:00.068Z,45.93
2022-12-01T19:28:48.278Z,37.63
2022-12-01T19:31:36.486Z,41.37
2022-12-01T19:34:24.181Z,39.70
2022-12-01T19:37:11.671Z,43.53
2022-12-01T19:39:58.819Z,45.13
2022-12-01T19:42:47.555Z,46.80
2022-12-01T19:45:37.362Z,42.23
2022-12-01T19:48:24.751Z,48.53
2022-12-01T19:51:18.311Z,44.97
2022-12-01T19:54:07.727Z,47.40
2022-12-01T19:56:55.117Z,41.20
2022-12-01T19:59:43.972Z,38.67
2022-12-01T20:02:31.092Z,53.27
2022-12-01T20:05:18.510Z,42.13
2022-12-01T20:08:06.047Z,44.00
2022-12-01T20:10:53.963Z,42.07
2022-12-01T20:13:43.352Z,47.73
2022-12-01T20:16:32.232Z,46.90
2022-12-01T20:19:19.255Z,43.87
2022-12-01T20:22:06.597Z,43.70
2022-12-01T20:24:54.006Z,42.97
2022-12-01T20:27:42.433Z,41.10
2022-12-01T20:30:29.962Z,42.63
2022-12-01T20:33:18.796Z,44.60
2022-12-01T20:36:06.524Z,40.83
2022-12-01T20:38:54.055Z,38.57
2022-12-01T20:41:42.155Z,45.27
2022-12-01T20:44:31.179Z,42.03
2022-12-01T20:47:20.478Z,38.50
2022-12-01T20:50:09.843Z,42.87
2022-12-01T20:52:56.967Z,43.37
2022-12-01T20:55:44.504Z,41.00
2022-12-01T20:58:36.004Z,39.50
2022-12-01T21:01:24.714Z,40.87
2022-12-01T21:04:11.807Z,41.80
2022-12-01T21:07:00.877Z,37.53
2022-12-01T21:09:48.130Z,43.90
2022-12-01T21:12:54.000Z,35.43
2022-12-01T21:15:49.199Z,38.83
2022-12-01T21:18:43.404Z,42.10
2022-12-01T21:21:32.353Z,39.40
2022-12-01T21:24:27.224Z,35.00
2022-12-01T21:27:18.763Z,38.17
2022-12-01T21:30:16.134Z,37.37
2022-12-01T21:33:19.145Z,44.93
2022-12-01T21:36:15.637Z,48.07
2022-12-01T21:39:14.591Z,37.13
2022-12-01T21:42:17.735Z,37.77
2022-12-01T21:45:14.960Z,36.97
2022-12-01T21:48:13.712Z,41.23
2022-12-01T21:51:03.037Z,42.40
2022-12-01T21:53:51.361Z,40.67
2022-12-01T21:56:38.581Z,40.90
2022-12-01T21:59:28.137Z,40.00
2022-12-01T22:02:38.817Z,38.03
2022-12-01T22:05:30.990Z,39.13
2022-12-01T22:08:26.363Z,37.37
2022-12-01T22:11:18.548Z,37.90
2022-12-01T22:14:13.707Z,35.33
2022-12-01T22:17:14.217Z,42.37
2022-12-01T22:20:02.424Z,37.17
2022-12-01T22:22:49.856Z,36.13
2022-12-01T22:25:37.312Z,45.10
2022-12-01T22:28:26.000Z,37.87
2022-12-01T22:31:15.911Z,40.27
2022-12-01T22:34:05.296Z,40.43
2022-12-01T22:36:53.000Z,38.97
2022-12-01T22:39:41.541Z,38.47
2022-12-01T22:42:33.951Z,33.03
2022-12-01T22:45:24.453Z,33.97
2022-12-01T22:48:25.634Z,40.03
2022-12-01T22:51:36.968Z,37.77
2022-12-01T22:54:35.711Z,34.50
2022-12-01T22:57:32.907Z,37.33
2022-12-01T23:00:23.129Z,39.07
2022-12-01T23:03:12.351Z,37.20
2022-12-01T23:05:59.770Z,37.47
2022-12-01T23:08:48.437Z,36.63
2022-12-01T23:11:36.054Z,38.33
2022-12-01T23:14:24.582Z,42.83
2022-12-01T23:17:17.495Z,36.33
2022-12-01T23:20:27.665Z,39.70
2022-12-01T23:23:17.976Z,36.67
2022-12-01T23:26:08.921Z,35.57
2022-12-01T23:28:57.991Z,38.13
2022-12-01T23:31:46.470Z,34.50
2022-12-01T23:34:35.688Z,38.43
2022-12-01T23:37:33.250Z,36.50
2022-12-01T23:40:23.184Z,40.40
2022-12-01T23:43:17.811Z,34.83
2022-12-01T23:46:09.631Z,38.77
2022-12-01T23:49:00.041Z,33.00
2022-12-01T23:51:49.580Z,33.37
2022-12-01T23:54:39.751Z,43.83
2022-12-01T23:57:27.071Z,38.20
